sensor_id;sensor_type;location;lat;lon;timestamp;temperature;humidity
52769;DHT22;40471;44.534;18.644;2023-06-14T04:01:59;16.80;99.90
52769;DHT22;40471;44.534;18.644;2023-06-14T04:04:25;16.90;99.90
52769;DHT22;40471;44.534;18.644;2023-06-14T04:06:54;16.90;99.90
52769;DHT22;40471;44.534;18.644;2023-06-14T04:09:20;17.00;99.90
52769;DHT22;40471;44.534;18.644;2023-06-14T04:11:46;17.00;99.90
52769;DHT22;40471;44.534;18.644;2023-06-14T04:14:11;16.90;99.90
52769;DHT22;40471;44.534;18.644;2023-06-14T04:16:37;16.90;99.90
52769;DHT22;40471;44.534;18.644;2023-06-14T04:19:03;16.90;99.90
52769;DHT22;40471;44.534;18.644;2023-06-14T04:21:30;16.90;99.90
52769;DHT22;40471;44.534;18.644;2023-06-14T04:23:56;17.00;99.90
52769;DHT22;40471;44.534;18.644;2023-06-14T04:26:22;17.20;99.90
52769;DHT22;40471;44.534;18.644;2023-06-14T04:28:49;17.30;99.90
52769;DHT22;40471;44.534;18.644;2023-06-14T04:31:15;17.40;99.90
52769;DHT22;40471;44.534;18.644;2023-06-14T04:33:41;17.50;99.90
52769;DHT22;40471;44.534;18.644;2023-06-14T04:36:12;17.50;99.90
52769;DHT22;40471;44.534;18.644;2023-06-14T04:38:38;17.50;99.90
52769;DHT22;40471;44.534;18.644;2023-06-14T04:41:04;17.60;99.90
52769;DHT22;40471;44.534;18.644;2023-06-14T04:43:30;17.60;99.90
52769;DHT22;40471;44.534;18.644;2023-06-14T04:45:57;17.60;99.90
52769;DHT22;40471;44.534;18.644;2023-06-14T04:48:22;17.80;99.90
52769;DHT22;40471;44.534;18.644;2023-06-14T04:56:57;18.20;99.90
52769;DHT22;40471;44.534;18.644;2023-06-14T04:59:23;18.30;99.90
52769;DHT22;40471;44.534;18.644;2023-06-14T05:01:49;18.40;99.90
52769;DHT22;40471;44.534;18.644;2023-06-14T05:04:15;18.50;99.90
52769;DHT22;40471;44.534;18.644;2023-06-14T05:06:44;17.60;99.90
52769;DHT22;40471;44.534;18.644;2023-06-14T05:09:10;18.70;99.90
52769;DHT22;40471;44.534;18.644;2023-06-14T05:11:36;18.70;99.90
52769;DHT22;40471;44.534;18.644;2023-06-14T05:14:02;18.80;99.90
52769;DHT22;40471;44.534;18.644;2023-06-14T05:16:27;18.80;99.90
52769;DHT22;40471;44.534;18.644;2023-06-14T05:18:54;18.60;99.90
52769;DHT22;40471;44.534;18.644;2023-06-14T05:21:20;18.60;99.90
52769;DHT22;40471;44.534;18.644;2023-06-14T05:23:46;18.30;99.90
52769;DHT22;40471;44.534;18.644;2023-06-14T05:26:11;18.40;99.90
52769;DHT22;40471;44.534;18.644;2023-06-14T05:28:37;18.30;99.90
52769;DHT22;40471;44.534;18.644;2023-06-14T05:31:03;18.30;99.90
52769;DHT22;40471;44.534;18.644;2023-06-14T05:33:28;18.40;99.90
52769;DHT22;40471;44.534;18.644;2023-06-14T05:35:54;18.50;99.90
52769;DHT22;40471;44.534;18.644;2023-06-14T05:38:20;18.70;99.90
52769;DHT22;40471;44.534;18.644;2023-06-14T05:40:46;18.70;99.90
52769;DHT22;40471;44.534;18.644;2023-06-14T05:43:12;18.90;99.90
52769;DHT22;40471;44.534;18.644;2023-06-14T05:45:37;19.40;99.90
52769;DHT22;40471;44.534;18.644;2023-06-14T05:48:03;18.90;99.90
52769;DHT22;40471;44.534;18.644;2023-06-14T05:50:29;19.00;99.90
52769;DHT22;40471;44.534;18.644;2023-06-14T05:52:54;19.10;99.90
52769;DHT22;40471;44.534;18.644;2023-06-14T05:55:20;19.80;99.90
52769;DHT22;40471;44.534;18.644;2023-06-14T06:14:16;19.30;99.90
52769;DHT22;40471;44.534;18.644;2023-06-14T06:16:42;19.60;99.90
52769;DHT22;40471;44.534;18.644;2023-06-14T06:19:07;19.70;99.90
52769;DHT22;40471;44.534;18.644;2023-06-14T06:24:37;19.70;99.90
52769;DHT22;40471;44.534;18.644;2023-06-14T06:27:02;19.70;99.90
52769;DHT22;40471;44.534;18.644;2023-06-14T06:29:28;19.70;99.90
52769;DHT22;40471;44.534;18.644;2023-06-14T06:31:54;19.80;99.90
52769;DHT22;40471;44.534;18.644;2023-06-14T06:37:25;20.00;99.90
52769;DHT22;40471;44.534;18.644;2023-06-14T06:39:50;20.00;99.90
52769;DHT22;40471;44.534;18.644;2023-06-14T06:42:16;20.20;99.90
52769;DHT22;40471;44.534;18.644;2023-06-14T06:44:41;20.20;99.90
52769;DHT22;40471;44.534;18.644;2023-06-14T06:47:07;20.40;99.90
52769;DHT22;40471;44.534;18.644;2023-06-14T06:49:35;20.60;99.90
52769;DHT22;40471;44.534;18.644;2023-06-14T06:52:02;20.80;99.90
52769;DHT22;40471;44.534;18.644;2023-06-14T06:54:28;20.80;99.90
52769;DHT22;40471;44.534;18.644;2023-06-14T06:56:53;21.10;99.90
52769;DHT22;40471;44.534;18.644;2023-06-14T06:59:19;21.30;99.90
52769;DHT22;40471;44.534;18.644;2023-06-14T07:01:45;21.30;99.90
52769;DHT22;40471;44.534;18.644;2023-06-14T07:04:12;21.40;99.90
52769;DHT22;40471;44.534;18.644;2023-06-14T07:06:38;21.40;99.90
52769;DHT22;40471;44.534;18.644;2023-06-14T07:09:04;21.60;99.90
52769;DHT22;40471;44.534;18.644;2023-06-14T07:14:33;21.50;99.90
52769;DHT22;40471;44.534;18.644;2023-06-14T07:16:59;21.50;99.90
52769;DHT22;40471;44.534;18.644;2023-06-14T07:19:24;21.60;99.90
52769;DHT22;40471;44.534;18.644;2023-06-14T07:24:53;21.50;99.90
52769;DHT22;40471;44.534;18.644;2023-06-14T07:27:18;21.50;99.90
52769;DHT22;40471;44.534;18.644;2023-06-14T07:32:50;21.50;99.90
52769;DHT22;40471;44.534;18.644;2023-06-14T07:35:16;21.30;99.90
52769;DHT22;40471;44.534;18.644;2023-06-14T07:37:41;21.20;99.90
52769;DHT22;40471;44.534;18.644;2023-06-14T07:40:07;21.30;99.90
52769;DHT22;40471;44.534;18.644;2023-06-14T07:42:33;21.30;99.90
52769;DHT22;40471;44.534;18.644;2023-06-14T07:45:00;21.30;99.90
52769;DHT22;40471;44.534;18.644;2023-06-14T07:47:26;21.40;99.90
52769;DHT22;40471;44.534;18.644;2023-06-14T07:49:51;21.40;99.90
52769;DHT22;40471;44.534;18.644;2023-06-14T07:52:17;21.40;99.90
52769;DHT22;40471;44.534;18.644;2023-06-14T07:57:46;21.50;99.90
52769;DHT22;40471;44.534;18.644;2023-06-14T08:03:14;21.60;99.90
52769;DHT22;40471;44.534;18.644;2023-06-14T08:05:40;21.70;99.90
52769;DHT22;40471;44.534;18.644;2023-06-14T08:08:06;21.70;99.90
52769;DHT22;40471;44.534;18.644;2023-06-14T08:10:32;21.70;99.90
52769;DHT22;40471;44.534;18.644;2023-06-14T08:12:57;21.50;99.90
52769;DHT22;40471;44.534;18.644;2023-06-14T08:15:23;21.50;99.90
52769;DHT22;40471;44.534;18.644;2023-06-14T08:17:49;21.40;99.90
52769;DHT22;40471;44.534;18.644;2023-06-14T08:20:17;21.30;99.90
52769;DHT22;40471;44.534;18.644;2023-06-14T08:22:42;21.10;99.90
52769;DHT22;40471;44.534;18.644;2023-06-14T08:25:08;21.10;99.90
52769;DHT22;40471;44.534;18.644;2023-06-14T08:27:34;21.10;99.90
52769;DHT22;40471;44.534;18.644;2023-06-14T08:30:13;21.20;99.90
52769;DHT22;40471;44.534;18.644;2023-06-14T08:32:39;21.30;99.90
52769;DHT22;40471;44.534;18.644;2023-06-14T08:35:04;21.50;99.90
52769;DHT22;40471;44.534;18.644;2023-06-14T08:37:31;21.50;99.90
52769;DHT22;40471;44.534;18.644;2023-06-14T08:39:58;21.40;99.90
52769;DHT22;40471;44.534;18.644;2023-06-14T08:48:23;21.50;99.90
52769;DHT22;40471;44.534;18.644;2023-06-14T08:50:51;21.70;99.90
52769;DHT22;40471;44.534;18.644;2023-06-14T08:56:20;21.80;99.90
52769;DHT22;40471;44.534;18.644;2023-06-14T09:04:53;23.20;99.90
52769;DHT22;40471;44.534;18.644;2023-06-14T09:07:19;22.30;99.90
52769;DHT22;40471;44.534;18.644;2023-06-14T09:15:50;22.60;99.90
52769;DHT22;40471;44.534;18.644;2023-06-14T09:26:28;22.70;99.90
52769;DHT22;40471;44.534;18.644;2023-06-14T09:28:54;23.00;99.90
52769;DHT22;40471;44.534;18.644;2023-06-14T09:31:20;23.20;99.90
52769;DHT22;40471;44.534;18.644;2023-06-14T09:33:50;23.40;99.90
52769;DHT22;40471;44.534;18.644;2023-06-14T09:36:17;23.30;99.90
52769;DHT22;40471;44.534;18.644;2023-06-14T09:38:51;23.20;99.90
52769;DHT22;40471;44.534;18.644;2023-06-14T09:41:17;23.30;99.90
52769;DHT22;40471;44.534;18.644;2023-06-14T09:43:42;23.40;99.90
52769;DHT22;40471;44.534;18.644;2023-06-14T09:46:08;23.50;99.90
52769;DHT22;40471;44.534;18.644;2023-06-14T09:48:34;23.50;99.90
52769;DHT22;40471;44.534;18.644;2023-06-14T09:51:00;23.50;99.90
52769;DHT22;40471;44.534;18.644;2023-06-14T09:53:26;23.40;99.90
52769;DHT22;40471;44.534;18.644;2023-06-14T09:55:53;23.30;99.90
52769;DHT22;40471;44.534;18.644;2023-06-14T09:58:20;23.20;99.90
52769;DHT22;40471;44.534;18.644;2023-06-14T10:00:48;23.30;99.90
52769;DHT22;40471;44.534;18.644;2023-06-14T10:03:24;23.40;99.90
52769;DHT22;40471;44.534;18.644;2023-06-14T10:05:50;23.60;99.90
52769;DHT22;40471;44.534;18.644;2023-06-14T10:08:18;23.80;99.90
52769;DHT22;40471;44.534;18.644;2023-06-14T10:10:43;24.40;99.90
52769;DHT22;40471;44.534;18.644;2023-06-14T10:13:10;24.10;99.90
52769;DHT22;40471;44.534;18.644;2023-06-14T10:18:19;24.60;99.90
52769;DHT22;40471;44.534;18.644;2023-06-14T10:20:58;24.40;99.90
52769;DHT22;40471;44.534;18.644;2023-06-14T10:23:25;24.30;99.90
52769;DHT22;40471;44.534;18.644;2023-06-14T10:25:56;24.30;99.90
52769;DHT22;40471;44.534;18.644;2023-06-14T10:28:22;24.40;99.90
52769;DHT22;40471;44.534;18.644;2023-06-14T10:31:04;24.30;99.90
52769;DHT22;40471;44.534;18.644;2023-06-14T10:33:30;24.80;99.90
52769;DHT22;40471;44.534;18.644;2023-06-14T10:36:08;24.70;99.90
52769;DHT22;40471;44.534;18.644;2023-06-14T10:38:35;25.30;99.90
52769;DHT22;40471;44.534;18.644;2023-06-14T10:55:49;26.10;96.90
52769;DHT22;40471;44.534;18.644;2023-06-14T10:58:16;26.00;97.70
52769;DHT22;40471;44.534;18.644;2023-06-14T11:00:41;26.10;97.40
52769;DHT22;40471;44.534;18.644;2023-06-14T11:10:39;26.30;95.10
52769;DHT22;40471;44.534;18.644;2023-06-14T11:16:15;26.60;95.70
52769;DHT22;40471;44.534;18.644;2023-06-14T11:18:41;26.90;94.40
52769;DHT22;40471;44.534;18.644;2023-06-14T11:21:08;26.90;93.10
52769;DHT22;40471;44.534;18.644;2023-06-14T11:23:34;27.10;92.30
52769;DHT22;40471;44.534;18.644;2023-06-14T11:26:00;27.70;92.20
52769;DHT22;40471;44.534;18.644;2023-06-14T11:28:35;27.90;91.10
52769;DHT22;40471;44.534;18.644;2023-06-14T11:31:01;28.10;90.60
52769;DHT22;40471;44.534;18.644;2023-06-14T11:33:27;28.30;89.70
52769;DHT22;40471;44.534;18.644;2023-06-14T11:35:53;28.10;90.50
52769;DHT22;40471;44.534;18.644;2023-06-14T11:38:18;28.40;89.50
52769;DHT22;40471;44.534;18.644;2023-06-14T11:40:44;28.80;89.40
52769;DHT22;40471;44.534;18.644;2023-06-14T11:43:09;28.80;90.10
52769;DHT22;40471;44.534;18.644;2023-06-14T11:45:35;29.00;90.00
52769;DHT22;40471;44.534;18.644;2023-06-14T11:48:01;28.80;86.60
52769;DHT22;40471;44.534;18.644;2023-06-14T11:50:27;28.20;87.30
52769;DHT22;40471;44.534;18.644;2023-06-14T11:52:55;28.30;88.30
52769;DHT22;40471;44.534;18.644;2023-06-14T11:55:21;28.40;88.90
52769;DHT22;40471;44.534;18.644;2023-06-14T11:57:47;28.70;88.10
52769;DHT22;40471;44.534;18.644;2023-06-14T12:00:13;28.80;89.40
52769;DHT22;40471;44.534;18.644;2023-06-14T12:06:03;30.30;86.60
52769;DHT22;40471;44.534;18.644;2023-06-14T12:08:35;30.10;83.60
52769;DHT22;40471;44.534;18.644;2023-06-14T12:11:14;30.40;84.20
52769;DHT22;40471;44.534;18.644;2023-06-14T12:13:41;30.70;85.00
52769;DHT22;40471;44.534;18.644;2023-06-14T12:16:07;31.20;82.40
52769;DHT22;40471;44.534;18.644;2023-06-14T12:21:55;30.70;81.20
52769;DHT22;40471;44.534;18.644;2023-06-14T12:24:27;31.20;81.10
52769;DHT22;40471;44.534;18.644;2023-06-14T12:26:54;30.60;81.50
52769;DHT22;40471;44.534;18.644;2023-06-14T12:29:19;30.60;79.70
52769;DHT22;40471;44.534;18.644;2023-06-14T12:31:45;30.10;81.50
52769;DHT22;40471;44.534;18.644;2023-06-14T12:34:11;30.10;81.60
52769;DHT22;40471;44.534;18.644;2023-06-14T12:36:36;30.30;81.50
52769;DHT22;40471;44.534;18.644;2023-06-14T12:39:07;29.70;80.70
52769;DHT22;40471;44.534;18.644;2023-06-14T12:41:33;29.60;83.70
52769;DHT22;40471;44.534;18.644;2023-06-14T12:43:59;29.70;82.40
52769;DHT22;40471;44.534;18.644;2023-06-14T12:46:30;29.60;82.60
52769;DHT22;40471;44.534;18.644;2023-06-14T12:48:56;29.80;82.20
52769;DHT22;40471;44.534;18.644;2023-06-14T12:51:22;29.70;83.20
52769;DHT22;40471;44.534;18.644;2023-06-14T12:53:48;30.10;82.20
52769;DHT22;40471;44.534;18.644;2023-06-14T12:56:14;30.30;82.30
52769;DHT22;40471;44.534;18.644;2023-06-14T12:58:41;30.50;81.10
52769;DHT22;40471;44.534;18.644;2023-06-14T13:01:07;30.60;80.90
52769;DHT22;40471;44.534;18.644;2023-06-14T13:03:32;30.50;79.20
52769;DHT22;40471;44.534;18.644;2023-06-14T13:06:01;30.20;80.10
52769;DHT22;40471;44.534;18.644;2023-06-14T13:08:29;30.00;80.60
52769;DHT22;40471;44.534;18.644;2023-06-14T13:10:55;29.90;84.20
52769;DHT22;40471;44.534;18.644;2023-06-14T13:13:21;30.00;84.00
52769;DHT22;40471;44.534;18.644;2023-06-14T13:15:46;29.90;81.60
52769;DHT22;40471;44.534;18.644;2023-06-14T13:18:13;30.20;81.40
52769;DHT22;40471;44.534;18.644;2023-06-14T13:20:39;30.10;81.50
52769;DHT22;40471;44.534;18.644;2023-06-14T13:23:05;29.80;80.30
52769;DHT22;40471;44.534;18.644;2023-06-14T13:25:33;29.50;81.10
52769;DHT22;40471;44.534;18.644;2023-06-14T13:27:58;29.50;81.50
52769;DHT22;40471;44.534;18.644;2023-06-14T13:30:24;29.50;81.00
52769;DHT22;40471;44.534;18.644;2023-06-14T13:32:50;29.40;81.40
52769;DHT22;40471;44.534;18.644;2023-06-14T13:35:20;29.00;81.90
52769;DHT22;40471;44.534;18.644;2023-06-14T13:37:45;29.10;82.80
52769;DHT22;40471;44.534;18.644;2023-06-14T13:40:11;29.10;81.60
52769;DHT22;40471;44.534;18.644;2023-06-14T13:42:37;29.00;81.50
52769;DHT22;40471;44.534;18.644;2023-06-14T13:45:03;28.90;82.30
52769;DHT22;40471;44.534;18.644;2023-06-14T13:47:29;29.00;83.60
52769;DHT22;40471;44.534;18.644;2023-06-14T13:49:55;29.00;83.70
52769;DHT22;40471;44.534;18.644;2023-06-14T13:52:21;29.10;83.20
52769;DHT22;40471;44.534;18.644;2023-06-14T13:54:47;29.00;83.40
52769;DHT22;40471;44.534;18.644;2023-06-14T13:57:12;29.00;83.70
52769;DHT22;40471;44.534;18.644;2023-06-14T13:59:39;29.00;83.80
52769;DHT22;40471;44.534;18.644;2023-06-14T14:02:05;28.90;84.10
52769;DHT22;40471;44.534;18.644;2023-06-14T14:04:31;28.90;84.20
52769;DHT22;40471;44.534;18.644;2023-06-14T14:06:57;28.90;82.90
52769;DHT22;40471;44.534;18.644;2023-06-14T14:09:22;28.30;84.10
52769;DHT22;40471;44.534;18.644;2023-06-14T14:11:49;28.20;83.90
52769;DHT22;40471;44.534;18.644;2023-06-14T14:14:15;28.20;84.80
52769;DHT22;40471;44.534;18.644;2023-06-14T14:16:40;28.10;84.50
52769;DHT22;40471;44.534;18.644;2023-06-14T14:19:06;28.00;85.50
52769;DHT22;40471;44.534;18.644;2023-06-14T14:21:32;28.10;84.80
52769;DHT22;40471;44.534;18.644;2023-06-14T14:23:58;28.10;84.70
52769;DHT22;40471;44.534;18.644;2023-06-14T14:26:24;28.30;87.00
52769;DHT22;40471;44.534;18.644;2023-06-14T14:28:50;28.40;84.70
52769;DHT22;40471;44.534;18.644;2023-06-14T14:31:16;28.10;84.00
52769;DHT22;40471;44.534;18.644;2023-06-14T14:33:42;28.20;84.50
52769;DHT22;40471;44.534;18.644;2023-06-14T14:36:07;28.00;84.40
52769;DHT22;40471;44.534;18.644;2023-06-14T14:38:33;27.80;85.40
52769;DHT22;40471;44.534;18.644;2023-06-14T14:40:59;27.80;83.70
52769;DHT22;40471;44.534;18.644;2023-06-14T14:43:24;27.30;84.70
52769;DHT22;40471;44.534;18.644;2023-06-14T14:45:50;27.20;85.60
52769;DHT22;40471;44.534;18.644;2023-06-14T14:48:16;27.20;84.50
52769;DHT22;40471;44.534;18.644;2023-06-14T14:50:41;26.90;84.60
52769;DHT22;40471;44.534;18.644;2023-06-14T14:53:07;26.70;85.50
52769;DHT22;40471;44.534;18.644;2023-06-14T14:55:33;26.50;86.10
52769;DHT22;40471;44.534;18.644;2023-06-14T14:58:01;26.30;85.50
52769;DHT22;40471;44.534;18.644;2023-06-14T15:00:28;26.10;86.30
52769;DHT22;40471;44.534;18.644;2023-06-14T15:02:53;26.10;86.70
52769;DHT22;40471;44.534;18.644;2023-06-14T15:05:19;26.20;86.50
52769;DHT22;40471;44.534;18.644;2023-06-14T15:07:45;26.40;86.60
52769;DHT22;40471;44.534;18.644;2023-06-14T15:10:11;26.60;86.10
52769;DHT22;40471;44.534;18.644;2023-06-14T15:12:36;26.80;85.90
52769;DHT22;40471;44.534;18.644;2023-06-14T15:15:02;26.80;86.50
52769;DHT22;40471;44.534;18.644;2023-06-14T15:17:28;26.70;85.90
52769;DHT22;40471;44.534;18.644;2023-06-14T15:19:54;26.60;85.90
52769;DHT22;40471;44.534;18.644;2023-06-14T15:22:20;26.50;85.90
52769;DHT22;40471;44.534;18.644;2023-06-14T15:24:46;26.30;86.20
52769;DHT22;40471;44.534;18.644;2023-06-14T15:27:12;26.20;86.70
52769;DHT22;40471;44.534;18.644;2023-06-14T15:29:38;26.20;87.60
52769;DHT22;40471;44.534;18.644;2023-06-14T15:32:04;26.30;87.80
52769;DHT22;40471;44.534;18.644;2023-06-14T15:34:30;26.40;87.20
52769;DHT22;40471;44.534;18.644;2023-06-14T15:36:56;26.30;87.00
52769;DHT22;40471;44.534;18.644;2023-06-14T15:39:22;26.10;87.40
52769;DHT22;40471;44.534;18.644;2023-06-14T15:41:49;25.80;87.70
52769;DHT22;40471;44.534;18.644;2023-06-14T15:44:16;25.60;88.30
52769;DHT22;40471;44.534;18.644;2023-06-14T15:46:42;25.40;89.00
52769;DHT22;40471;44.534;18.644;2023-06-14T15:49:08;25.30;90.40
52769;DHT22;40471;44.534;18.644;2023-06-14T15:51:34;25.30;91.20
52769;DHT22;40471;44.534;18.644;2023-06-14T15:54:00;25.30;91.50
52769;DHT22;40471;44.534;18.644;2023-06-14T15:56:25;25.10;91.60
52769;DHT22;40471;44.534;18.644;2023-06-14T15:58:51;25.10;91.50
52769;DHT22;40471;44.534;18.644;2023-06-14T16:01:17;25.10;91.50
52769;DHT22;40471;44.534;18.644;2023-06-14T16:03:42;25.20;91.00
52769;DHT22;40471;44.534;18.644;2023-06-14T16:06:08;25.20;91.30
52769;DHT22;40471;44.534;18.644;2023-06-14T16:08:34;25.20;91.30
52769;DHT22;40471;44.534;18.644;2023-06-14T16:10:59;25.10;91.40
52769;DHT22;40471;44.534;18.644;2023-06-14T16:13:25;25.20;91.60
52769;DHT22;40471;44.534;18.644;2023-06-14T16:15:51;25.30;91.70
52769;DHT22;40471;44.534;18.644;2023-06-14T16:18:16;25.30;91.20
52769;DHT22;40471;44.534;18.644;2023-06-14T16:20:42;25.30;91.70
52769;DHT22;40471;44.534;18.644;2023-06-14T16:23:07;25.10;92.60
52769;DHT22;40471;44.534;18.644;2023-06-14T16:25:33;24.80;94.30
52769;DHT22;40471;44.534;18.644;2023-06-14T16:27:58;24.60;95.50
52769;DHT22;40471;44.534;18.644;2023-06-14T16:30:24;24.30;97.70
52769;DHT22;40471;44.534;18.644;2023-06-14T16:32:50;24.20;99.20
52769;DHT22;40471;44.534;18.644;2023-06-14T16:35:16;24.10;99.90
52769;DHT22;40471;44.534;18.644;2023-06-14T16:37:41;24.00;99.90
52769;DHT22;40471;44.534;18.644;2023-06-14T16:40:07;24.00;99.90
52769;DHT22;40471;44.534;18.644;2023-06-14T16:42:33;24.10;99.90
52769;DHT22;40471;44.534;18.644;2023-06-14T16:44:58;24.00;99.90
52769;DHT22;40471;44.534;18.644;2023-06-14T16:47:26;24.00;99.90
52769;DHT22;40471;44.534;18.644;2023-06-14T16:49:51;23.80;99.90
52769;DHT22;40471;44.534;18.644;2023-06-14T16:52:17;23.60;99.90
52769;DHT22;40471;44.534;18.644;2023-06-14T16:54:42;23.60;99.90
52769;DHT22;40471;44.534;18.644;2023-06-14T16:57:08;23.50;99.90
52769;DHT22;40471;44.534;18.644;2023-06-14T16:59:34;23.40;99.90
52769;DHT22;40471;44.534;18.644;2023-06-14T17:02:03;23.30;99.90
52769;DHT22;40471;44.534;18.644;2023-06-14T17:04:47;23.20;99.90
52769;DHT22;40471;44.534;18.644;2023-06-14T17:07:31;23.20;99.90
52769;DHT22;40471;44.534;18.644;2023-06-14T17:10:15;23.20;99.90
52769;DHT22;40471;44.534;18.644;2023-06-14T17:13:00;23.30;99.90
52769;DHT22;40471;44.534;18.644;2023-06-14T17:15:44;23.10;99.90
52769;DHT22;40471;44.534;18.644;2023-06-14T17:18:28;23.10;99.90
52769;DHT22;40471;44.534;18.644;2023-06-14T17:21:12;23.00;99.90
52769;DHT22;40471;44.534;18.644;2023-06-14T17:23:56;23.20;99.90
52769;DHT22;40471;44.534;18.644;2023-06-14T19:29:10;22.60;99.90
52769;DHT22;40471;44.534;18.644;2023-06-14T19:34:39;22.50;99.90
52769;DHT22;40471;44.534;18.644;2023-06-14T19:37:08;22.50;99.90
52769;DHT22;40471;44.534;18.644;2023-06-14T19:39:34;22.50;99.90
52769;DHT22;40471;44.534;18.644;2023-06-14T19:42:00;22.40;99.90
52769;DHT22;40471;44.534;18.644;2023-06-14T19:44:25;22.30;99.90
52769;DHT22;40471;44.534;18.644;2023-06-14T19:46:51;22.30;99.90
52769;DHT22;40471;44.534;18.644;2023-06-14T19:49:16;22.20;99.90
52769;DHT22;40471;44.534;18.644;2023-06-14T19:51:43;22.20;99.90
52769;DHT22;40471;44.534;18.644;2023-06-14T19:54:09;22.20;99.90
52769;DHT22;40471;44.534;18.644;2023-06-14T19:56:35;22.10;99.90
52769;DHT22;40471;44.534;18.644;2023-06-14T19:59:00;22.10;99.90
52769;DHT22;40471;44.534;18.644;2023-06-14T20:01:27;22.10;99.90
52769;DHT22;40471;44.534;18.644;2023-06-14T20:03:53;22.10;99.90
52769;DHT22;40471;44.534;18.644;2023-06-14T20:06:19;22.00;99.90
52769;DHT22;40471;44.534;18.644;2023-06-14T20:08:44;22.00;99.90
52769;DHT22;40471;44.534;18.644;2023-06-14T20:11:10;21.90;99.90
52769;DHT22;40471;44.534;18.644;2023-06-14T20:13:36;21.90;99.90
52769;DHT22;40471;44.534;18.644;2023-06-14T20:16:03;21.90;99.90
52769;DHT22;40471;44.534;18.644;2023-06-14T20:18:30;21.90;99.90
52769;DHT22;40471;44.534;18.644;2023-06-14T20:20:56;21.80;99.90
52769;DHT22;40471;44.534;18.644;2023-06-14T20:23:21;21.70;99.90
52769;DHT22;40471;44.534;18.644;2023-06-14T20:25:47;21.70;99.90
52769;DHT22;40471;44.534;18.644;2023-06-14T20:28:13;21.60;99.90
52769;DHT22;40471;44.534;18.644;2023-06-14T20:30:39;21.60;99.90
52769;DHT22;40471;44.534;18.644;2023-06-14T20:33:05;21.50;99.90
52769;DHT22;40471;44.534;18.644;2023-06-14T20:35:30;21.50;99.90
52769;DHT22;40471;44.534;18.644;2023-06-14T20:37:56;21.40;99.90
52769;DHT22;40471;44.534;18.644;2023-06-14T20:40:22;21.40;99.90
52769;DHT22;40471;44.534;18.644;2023-06-14T20:42:48;21.40;99.90
52769;DHT22;40471;44.534;18.644;2023-06-14T20:45:14;21.30;99.90
52769;DHT22;40471;44.534;18.644;2023-06-14T20:47:40;21.30;99.90
52769;DHT22;40471;44.534;18.644;2023-06-14T20:50:06;21.30;99.90
52769;DHT22;40471;44.534;18.644;2023-06-14T20:52:33;21.20;99.90
52769;DHT22;40471;44.534;18.644;2023-06-14T20:54:59;21.20;99.90
52769;DHT22;40471;44.534;18.644;2023-06-14T20:57:24;21.10;99.90
52769;DHT22;40471;44.534;18.644;2023-06-14T20:59:50;21.20;99.90
52769;DHT22;40471;44.534;18.644;2023-06-14T21:02:16;21.10;99.90
52769;DHT22;40471;44.534;18.644;2023-06-14T21:04:43;21.10;99.90
52769;DHT22;40471;44.534;18.644;2023-06-14T21:07:08;21.10;99.90
52769;DHT22;40471;44.534;18.644;2023-06-14T21:09:34;21.10;99.90
52769;DHT22;40471;44.534;18.644;2023-06-14T21:12:00;21.10;99.90
52769;DHT22;40471;44.534;18.644;2023-06-14T21:14:26;21.00;99.90
52769;DHT22;40471;44.534;18.644;2023-06-14T21:16:52;21.00;99.90
52769;DHT22;40471;44.534;18.644;2023-06-14T21:19:17;21.00;99.90
52769;DHT22;40471;44.534;18.644;2023-06-14T21:21:43;21.00;99.90
52769;DHT22;40471;44.534;18.644;2023-06-14T21:24:08;21.00;99.90
52769;DHT22;40471;44.534;18.644;2023-06-14T21:26:34;20.90;99.90
52769;DHT22;40471;44.534;18.644;2023-06-14T21:29:00;21.00;99.90
52769;DHT22;40471;44.534;18.644;2023-06-14T21:31:26;20.90;99.90
52769;DHT22;40471;44.534;18.644;2023-06-14T21:33:52;20.90;99.90
52769;DHT22;40471;44.534;18.644;2023-06-14T21:36:18;20.90;99.90
52769;DHT22;40471;44.534;18.644;2023-06-14T21:38:43;20.90;99.90
52769;DHT22;40471;44.534;18.644;2023-06-14T21:41:09;20.80;99.90
52769;DHT22;40471;44.534;18.644;2023-06-14T21:43:35;20.70;99.90
52769;DHT22;40471;44.534;18.644;2023-06-14T21:46:02;20.70;99.90
52769;DHT22;40471;44.534;18.644;2023-06-14T21:48:27;20.70;99.90
52769;DHT22;40471;44.534;18.644;2023-06-14T21:50:53;20.70;99.90
52769;DHT22;40471;44.534;18.644;2023-06-14T21:53:19;20.60;99.90
52769;DHT22;40471;44.534;18.644;2023-06-14T21:55:44;20.60;99.90
52769;DHT22;40471;44.534;18.644;2023-06-14T21:58:10;20.60;99.90
52769;DHT22;40471;44.534;18.644;2023-06-14T22:00:35;20.50;99.90
52769;DHT22;40471;44.534;18.644;2023-06-14T22:03:03;20.50;99.90
52769;DHT22;40471;44.534;18.644;2023-06-14T22:05:28;20.40;99.90
52769;DHT22;40471;44.534;18.644;2023-06-14T22:07:54;20.50;99.90
52769;DHT22;40471;44.534;18.644;2023-06-14T22:10:20;20.40;99.90
52769;DHT22;40471;44.534;18.644;2023-06-14T22:12:46;20.40;99.90
52769;DHT22;40471;44.534;18.644;2023-06-14T22:15:14;20.30;99.90
52769;DHT22;40471;44.534;18.644;2023-06-14T22:17:41;20.30;99.90
52769;DHT22;40471;44.534;18.644;2023-06-14T22:20:07;20.20;99.90
52769;DHT22;40471;44.534;18.644;2023-06-14T22:22:36;20.20;99.90
52769;DHT22;40471;44.534;18.644;2023-06-14T22:25:03;20.20;99.90
52769;DHT22;40471;44.534;18.644;2023-06-14T22:27:29;20.20;99.90
52769;DHT22;40471;44.534;18.644;2023-06-14T22:29:55;20.20;99.90
52769;DHT22;40471;44.534;18.644;2023-06-14T22:32:24;20.20;99.90
52769;DHT22;40471;44.534;18.644;2023-06-14T22:34:50;20.20;99.90
52769;DHT22;40471;44.534;18.644;2023-06-14T22:37:17;20.20;99.90
52769;DHT22;40471;44.534;18.644;2023-06-14T22:39:44;20.20;99.90
52769;DHT22;40471;44.534;18.644;2023-06-14T22:42:10;20.20;99.90
52769;DHT22;40471;44.534;18.644;2023-06-14T22:44:39;20.20;99.90
52769;DHT22;40471;44.534;18.644;2023-06-14T22:50:17;20.10;99.90
52769;DHT22;40471;44.534;18.644;2023-06-14T22:52:43;20.00;99.90
52769;DHT22;40471;44.534;18.644;2023-06-14T22:55:10;19.90;99.90
52769;DHT22;40471;44.534;18.644;2023-06-14T22:57:36;19.80;99.90
52769;DHT22;40471;44.534;18.644;2023-06-14T23:00:03;19.80;99.90
52769;DHT22;40471;44.534;18.644;2023-06-14T23:02:32;19.90;99.90
52769;DHT22;40471;44.534;18.644;2023-06-14T23:04:57;19.90;99.90
52769;DHT22;40471;44.534;18.644;2023-06-14T23:07:24;19.80;99.90
52769;DHT22;40471;44.534;18.644;2023-06-14T23:09:52;19.80;99.90